sensor_id;sensor_type;location;lat;lon;timestamp;P1;durP1;ratioP1;P2;durP2;ratioP2
15307;SDS011;7755;52.208;6.964;2022-12-07T00:00:37;12.37;;;10.00;;
15307;SDS011;7755;52.208;6.964;2022-12-07T00:04:40;11.90;;;9.77;;
15307;SDS011;7755;52.208;6.964;2022-12-07T00:08:44;12.37;;;10.43;;
15307;SDS011;7755;52.208;6.964;2022-12-07T00:12:48;11.70;;;10.50;;
15307;SDS011;7755;52.208;6.964;2022-12-07T00:16:51;12.27;;;10.60;;
15307;SDS011;7755;52.208;6.964;2022-12-07T00:20:58;11.77;;;10.07;;
15307;SDS011;7755;52.208;6.964;2022-12-07T00:25:03;13.50;;;10.63;;
15307;SDS011;7755;52.208;6.964;2022-12-07T00:29:07;10.43;;;9.43;;
15307;SDS011;7755;52.208;6.964;2022-12-07T00:33:13;11.47;;;9.77;;
15307;SDS011;7755;52.208;6.964;2022-12-07T00:37:16;13.07;;;9.43;;
15307;SDS011;7755;52.208;6.964;2022-12-07T00:41:21;11.97;;;9.30;;
15307;SDS011;7755;52.208;6.964;2022-12-07T00:45:25;12.50;;;10.53;;
15307;SDS011;7755;52.208;6.964;2022-12-07T00:49:28;13.60;;;10.43;;
15307;SDS011;7755;52.208;6.964;2022-12-07T00:53:33;10.70;;;8.97;;
15307;SDS011;7755;52.208;6.964;2022-12-07T00:57:43;9.70;;;8.70;;
15307;SDS011;7755;52.208;6.964;2022-12-07T01:01:46;14.20;;;9.73;;
15307;SDS011;7755;52.208;6.964;2022-12-07T01:05:49;9.00;;;8.10;;
15307;SDS011;7755;52.208;6.964;2022-12-07T01:09:53;12.50;;;9.53;;
15307;SDS011;7755;52.208;6.964;2022-12-07T01:13:58;9.10;;;8.13;;
15307;SDS011;7755;52.208;6.964;2022-12-07T01:18:01;6.93;;;6.00;;
15307;SDS011;7755;52.208;6.964;2022-12-07T01:22:04;11.23;;;8.53;;
15307;SDS011;7755;52.208;6.964;2022-12-07T01:26:09;8.37;;;7.50;;
15307;SDS011;7755;52.208;6.964;2022-12-07T01:30:15;9.57;;;7.63;;
15307;SDS011;7755;52.208;6.964;2022-12-07T01:34:18;9.17;;;7.77;;
15307;SDS011;7755;52.208;6.964;2022-12-07T01:38:21;9.70;;;7.33;;
15307;SDS011;7755;52.208;6.964;2022-12-07T01:42:24;9.53;;;7.97;;
15307;SDS011;7755;52.208;6.964;2022-12-07T01:46:28;8.87;;;6.90;;
15307;SDS011;7755;52.208;6.964;2022-12-07T01:50:31;9.03;;;7.03;;
15307;SDS011;7755;52.208;6.964;2022-12-07T01:54:34;8.27;;;7.37;;
15307;SDS011;7755;52.208;6.964;2022-12-07T01:58:38;7.70;;;6.73;;
15307;SDS011;7755;52.208;6.964;2022-12-07T02:02:43;9.87;;;7.07;;
15307;SDS011;7755;52.208;6.964;2022-12-07T02:06:49;8.33;;;7.10;;
15307;SDS011;7755;52.208;6.964;2022-12-07T02:10:52;6.73;;;5.87;;
15307;SDS011;7755;52.208;6.964;2022-12-07T02:14:59;7.90;;;5.97;;
15307;SDS011;7755;52.208;6.964;2022-12-07T02:19:08;9.47;;;6.53;;
15307;SDS011;7755;52.208;6.964;2022-12-07T02:23:46;6.47;;;5.50;;
15307;SDS011;7755;52.208;6.964;2022-12-07T02:28:09;11.07;;;5.73;;
15307;SDS011;7755;52.208;6.964;2022-12-07T02:32:23;7.40;;;5.37;;
15307;SDS011;7755;52.208;6.964;2022-12-07T02:36:31;7.90;;;6.13;;
15307;SDS011;7755;52.208;6.964;2022-12-07T02:40:41;9.60;;;5.40;;
15307;SDS011;7755;52.208;6.964;2022-12-07T02:44:48;7.70;;;5.50;;
15307;SDS011;7755;52.208;6.964;2022-12-07T02:48:53;9.67;;;6.30;;
15307;SDS011;7755;52.208;6.964;2022-12-07T02:52:57;8.33;;;5.67;;
15307;SDS011;7755;52.208;6.964;2022-12-07T02:57:01;7.30;;;5.77;;
15307;SDS011;7755;52.208;6.964;2022-12-07T03:01:16;7.90;;;5.57;;
15307;SDS011;7755;52.208;6.964;2022-12-07T03:05:34;7.60;;;5.70;;
15307;SDS011;7755;52.208;6.964;2022-12-07T03:09:48;9.53;;;6.43;;
15307;SDS011;7755;52.208;6.964;2022-12-07T03:13:59;7.50;;;5.43;;
15307;SDS011;7755;52.208;6.964;2022-12-07T03:18:05;7.70;;;5.47;;
15307;SDS011;7755;52.208;6.964;2022-12-07T03:22:13;8.93;;;6.03;;
15307;SDS011;7755;52.208;6.964;2022-12-07T03:26:17;9.17;;;5.57;;
15307;SDS011;7755;52.208;6.964;2022-12-07T03:30:25;9.50;;;5.43;;
15307;SDS011;7755;52.208;6.964;2022-12-07T03:34:32;7.67;;;5.33;;
15307;SDS011;7755;52.208;6.964;2022-12-07T03:38:42;6.40;;;4.90;;
15307;SDS011;7755;52.208;6.964;2022-12-07T03:42:50;10.17;;;5.43;;
15307;SDS011;7755;52.208;6.964;2022-12-07T03:46:57;5.73;;;4.70;;
15307;SDS011;7755;52.208;6.964;2022-12-07T03:51:06;8.77;;;4.63;;
15307;SDS011;7755;52.208;6.964;2022-12-07T03:55:18;6.13;;;4.47;;
15307;SDS011;7755;52.208;6.964;2022-12-07T03:59:26;7.80;;;4.70;;
15307;SDS011;7755;52.208;6.964;2022-12-07T04:03:30;6.33;;;4.20;;
15307;SDS011;7755;52.208;6.964;2022-12-07T04:07:33;4.03;;;3.67;;
15307;SDS011;7755;52.208;6.964;2022-12-07T04:11:37;6.70;;;4.03;;
15307;SDS011;7755;52.208;6.964;2022-12-07T04:15:40;6.23;;;3.83;;
15307;SDS011;7755;52.208;6.964;2022-12-07T04:19:43;9.67;;;4.60;;
15307;SDS011;7755;52.208;6.964;2022-12-07T04:23:46;6.90;;;4.30;;
15307;SDS011;7755;52.208;6.964;2022-12-07T04:27:50;9.63;;;4.20;;
15307;SDS011;7755;52.208;6.964;2022-12-07T04:31:53;7.87;;;4.23;;
15307;SDS011;7755;52.208;6.964;2022-12-07T04:35:56;7.70;;;4.33;;
15307;SDS011;7755;52.208;6.964;2022-12-07T04:39:58;6.40;;;4.03;;
15307;SDS011;7755;52.208;6.964;2022-12-07T04:44:03;8.23;;;4.20;;
15307;SDS011;7755;52.208;6.964;2022-12-07T04:48:08;4.73;;;3.77;;
15307;SDS011;7755;52.208;6.964;2022-12-07T04:52:11;5.33;;;3.67;;
15307;SDS011;7755;52.208;6.964;2022-12-07T04:56:14;6.57;;;3.30;;
15307;SDS011;7755;52.208;6.964;2022-12-07T05:00:18;5.53;;;3.30;;
15307;SDS011;7755;52.208;6.964;2022-12-07T05:04:21;4.57;;;3.30;;
15307;SDS011;7755;52.208;6.964;2022-12-07T05:08:24;6.37;;;3.47;;
15307;SDS011;7755;52.208;6.964;2022-12-07T05:12:27;7.27;;;3.43;;
15307;SDS011;7755;52.208;6.964;2022-12-07T05:16:31;5.83;;;3.93;;
15307;SDS011;7755;52.208;6.964;2022-12-07T05:20:34;8.00;;;4.10;;
15307;SDS011;7755;52.208;6.964;2022-12-07T05:24:43;4.87;;;3.27;;
15307;SDS011;7755;52.208;6.964;2022-12-07T05:28:49;7.17;;;3.77;;
15307;SDS011;7755;52.208;6.964;2022-12-07T05:32:54;4.83;;;3.27;;
15307;SDS011;7755;52.208;6.964;2022-12-07T05:36:57;5.50;;;3.40;;
15307;SDS011;7755;52.208;6.964;2022-12-07T05:41:00;4.50;;;3.37;;
15307;SDS011;7755;52.208;6.964;2022-12-07T05:45:04;4.13;;;2.67;;
15307;SDS011;7755;52.208;6.964;2022-12-07T05:49:09;5.20;;;2.93;;
15307;SDS011;7755;52.208;6.964;2022-12-07T05:53:12;4.37;;;3.27;;
15307;SDS011;7755;52.208;6.964;2022-12-07T05:57:21;6.83;;;3.37;;
15307;SDS011;7755;52.208;6.964;2022-12-07T06:01:24;6.03;;;3.10;;
15307;SDS011;7755;52.208;6.964;2022-12-07T06:05:28;5.10;;;3.23;;
15307;SDS011;7755;52.208;6.964;2022-12-07T06:09:31;7.07;;;3.00;;
15307;SDS011;7755;52.208;6.964;2022-12-07T06:13:34;5.73;;;2.67;;
15307;SDS011;7755;52.208;6.964;2022-12-07T06:17:44;6.63;;;3.33;;
15307;SDS011;7755;52.208;6.964;2022-12-07T06:21:48;6.60;;;3.23;;
15307;SDS011;7755;52.208;6.964;2022-12-07T06:25:50;9.87;;;3.20;;
15307;SDS011;7755;52.208;6.964;2022-12-07T06:29:53;7.37;;;2.83;;
15307;SDS011;7755;52.208;6.964;2022-12-07T06:33:59;9.27;;;3.20;;
15307;SDS011;7755;52.208;6.964;2022-12-07T06:38:04;9.53;;;3.23;;
15307;SDS011;7755;52.208;6.964;2022-12-07T06:42:07;6.20;;;3.00;;
15307;SDS011;7755;52.208;6.964;2022-12-07T06:46:09;5.73;;;2.80;;
15307;SDS011;7755;52.208;6.964;2022-12-07T06:50:12;4.37;;;2.73;;
15307;SDS011;7755;52.208;6.964;2022-12-07T06:54:16;5.33;;;2.93;;
15307;SDS011;7755;52.208;6.964;2022-12-07T06:58:19;6.67;;;2.83;;
15307;SDS011;7755;52.208;6.964;2022-12-07T07:02:22;8.17;;;2.80;;
15307;SDS011;7755;52.208;6.964;2022-12-07T07:06:25;11.67;;;3.33;;
15307;SDS011;7755;52.208;6.964;2022-12-07T07:10:29;6.47;;;3.03;;
15307;SDS011;7755;52.208;6.964;2022-12-07T07:14:32;6.30;;;3.70;;
15307;SDS011;7755;52.208;6.964;2022-12-07T07:18:35;5.00;;;2.87;;
15307;SDS011;7755;52.208;6.964;2022-12-07T07:22:38;5.93;;;3.13;;
15307;SDS011;7755;52.208;6.964;2022-12-07T07:26:42;4.63;;;2.63;;
15307;SDS011;7755;52.208;6.964;2022-12-07T07:30:45;9.37;;;3.70;;
15307;SDS011;7755;52.208;6.964;2022-12-07T07:34:48;4.30;;;2.57;;
15307;SDS011;7755;52.208;6.964;2022-12-07T07:38:50;7.07;;;3.60;;
15307;SDS011;7755;52.208;6.964;2022-12-07T07:42:55;6.80;;;3.97;;
15307;SDS011;7755;52.208;6.964;2022-12-07T07:46:58;6.57;;;3.50;;
15307;SDS011;7755;52.208;6.964;2022-12-07T07:51:04;4.83;;;2.93;;
15307;SDS011;7755;52.208;6.964;2022-12-07T07:55:07;6.70;;;3.70;;
15307;SDS011;7755;52.208;6.964;2022-12-07T07:59:12;6.30;;;3.63;;
15307;SDS011;7755;52.208;6.964;2022-12-07T08:03:15;7.27;;;3.90;;
15307;SDS011;7755;52.208;6.964;2022-12-07T08:07:18;6.27;;;3.60;;
15307;SDS011;7755;52.208;6.964;2022-12-07T08:11:21;6.90;;;3.47;;
15307;SDS011;7755;52.208;6.964;2022-12-07T08:15:25;5.30;;;4.77;;
15307;SDS011;7755;52.208;6.964;2022-12-07T08:19:29;4.03;;;3.53;;
15307;SDS011;7755;52.208;6.964;2022-12-07T08:23:32;5.27;;;3.87;;
15307;SDS011;7755;52.208;6.964;2022-12-07T08:27:40;7.30;;;3.67;;
15307;SDS011;7755;52.208;6.964;2022-12-07T08:31:44;6.90;;;3.57;;
15307;SDS011;7755;52.208;6.964;2022-12-07T08:35:47;5.63;;;3.70;;
15307;SDS011;7755;52.208;6.964;2022-12-07T08:39:50;5.53;;;3.57;;
15307;SDS011;7755;52.208;6.964;2022-12-07T08:43:53;7.27;;;4.20;;
15307;SDS011;7755;52.208;6.964;2022-12-07T08:47:57;7.03;;;4.07;;
15307;SDS011;7755;52.208;6.964;2022-12-07T08:52:05;5.30;;;3.40;;
15307;SDS011;7755;52.208;6.964;2022-12-07T08:56:08;8.17;;;4.67;;
15307;SDS011;7755;52.208;6.964;2022-12-07T09:00:12;10.00;;;4.77;;
15307;SDS011;7755;52.208;6.964;2022-12-07T09:04:17;6.90;;;4.27;;
15307;SDS011;7755;52.208;6.964;2022-12-07T09:08:20;6.23;;;4.67;;
15307;SDS011;7755;52.208;6.964;2022-12-07T09:12:24;10.00;;;5.53;;
15307;SDS011;7755;52.208;6.964;2022-12-07T09:16:26;6.50;;;4.63;;
15307;SDS011;7755;52.208;6.964;2022-12-07T09:20:31;7.33;;;5.40;;
15307;SDS011;7755;52.208;6.964;2022-12-07T09:24:34;8.33;;;4.40;;
15307;SDS011;7755;52.208;6.964;2022-12-07T09:28:37;8.20;;;4.40;;
15307;SDS011;7755;52.208;6.964;2022-12-07T09:32:40;8.83;;;4.80;;
15307;SDS011;7755;52.208;6.964;2022-12-07T09:36:44;7.43;;;4.90;;
15307;SDS011;7755;52.208;6.964;2022-12-07T09:40:48;9.47;;;5.07;;
15307;SDS011;7755;52.208;6.964;2022-12-07T09:44:50;5.73;;;4.77;;
15307;SDS011;7755;52.208;6.964;2022-12-07T09:48:53;13.27;;;7.33;;
15307;SDS011;7755;52.208;6.964;2022-12-07T09:53:03;10.27;;;6.23;;
15307;SDS011;7755;52.208;6.964;2022-12-07T09:57:10;7.97;;;4.70;;
15307;SDS011;7755;52.208;6.964;2022-12-07T10:01:15;12.30;;;5.00;;
15307;SDS011;7755;52.208;6.964;2022-12-07T10:05:20;7.20;;;4.20;;
15307;SDS011;7755;52.208;6.964;2022-12-07T10:09:28;8.97;;;4.30;;
15307;SDS011;7755;52.208;6.964;2022-12-07T10:13:37;9.57;;;4.67;;
15307;SDS011;7755;52.208;6.964;2022-12-07T10:17:41;7.83;;;4.40;;
15307;SDS011;7755;52.208;6.964;2022-12-07T10:22:01;5.77;;;4.20;;
15307;SDS011;7755;52.208;6.964;2022-12-07T10:26:21;7.60;;;4.83;;
15307;SDS011;7755;52.208;6.964;2022-12-07T10:30:30;8.07;;;3.93;;
15307;SDS011;7755;52.208;6.964;2022-12-07T10:34:36;5.83;;;3.87;;
15307;SDS011;7755;52.208;6.964;2022-12-07T10:38:52;4.90;;;3.60;;
15307;SDS011;7755;52.208;6.964;2022-12-07T10:43:17;4.37;;;3.37;;
15307;SDS011;7755;52.208;6.964;2022-12-07T10:47:25;4.90;;;4.40;;
15307;SDS011;7755;52.208;6.964;2022-12-07T10:51:37;5.50;;;3.30;;
15307;SDS011;7755;52.208;6.964;2022-12-07T10:55:50;3.70;;;3.20;;
15307;SDS011;7755;52.208;6.964;2022-12-07T11:00:08;4.50;;;2.87;;
15307;SDS011;7755;52.208;6.964;2022-12-07T11:04:21;5.60;;;3.07;;
15307;SDS011;7755;52.208;6.964;2022-12-07T11:08:38;6.83;;;3.40;;
15307;SDS011;7755;52.208;6.964;2022-12-07T11:12:50;5.43;;;3.87;;
15307;SDS011;7755;52.208;6.964;2022-12-07T11:17:07;5.73;;;3.27;;
15307;SDS011;7755;52.208;6.964;2022-12-07T11:21:18;6.57;;;3.20;;
15307;SDS011;7755;52.208;6.964;2022-12-07T11:25:27;5.23;;;3.00;;
15307;SDS011;7755;52.208;6.964;2022-12-07T11:29:41;6.27;;;3.83;;
15307;SDS011;7755;52.208;6.964;2022-12-07T11:33:53;5.90;;;3.07;;
15307;SDS011;7755;52.208;6.964;2022-12-07T11:38:11;4.70;;;2.90;;
15307;SDS011;7755;52.208;6.964;2022-12-07T11:42:19;6.93;;;3.10;;
15307;SDS011;7755;52.208;6.964;2022-12-07T11:46:25;3.53;;;2.60;;
15307;SDS011;7755;52.208;6.964;2022-12-07T11:50:38;6.27;;;2.93;;
15307;SDS011;7755;52.208;6.964;2022-12-07T11:54:44;3.53;;;2.63;;
15307;SDS011;7755;52.208;6.964;2022-12-07T11:58:51;3.90;;;2.60;;
15307;SDS011;7755;52.208;6.964;2022-12-07T12:02:58;4.00;;;2.80;;
15307;SDS011;7755;52.208;6.964;2022-12-07T12:07:07;7.77;;;3.37;;
15307;SDS011;7755;52.208;6.964;2022-12-07T12:11:35;5.50;;;3.20;;
15307;SDS011;7755;52.208;6.964;2022-12-07T12:15:55;7.37;;;3.20;;
15307;SDS011;7755;52.208;6.964;2022-12-07T12:20:15;5.57;;;2.80;;
15307;SDS011;7755;52.208;6.964;2022-12-07T12:24:26;6.20;;;2.83;;
15307;SDS011;7755;52.208;6.964;2022-12-07T12:28:32;5.10;;;2.43;;
15307;SDS011;7755;52.208;6.964;2022-12-07T12:32:48;4.53;;;3.23;;
15307;SDS011;7755;52.208;6.964;2022-12-07T12:36:51;2.97;;;2.30;;
15307;SDS011;7755;52.208;6.964;2022-12-07T12:40:56;6.37;;;3.40;;
15307;SDS011;7755;52.208;6.964;2022-12-07T12:45:03;6.43;;;2.83;;
15307;SDS011;7755;52.208;6.964;2022-12-07T12:54:03;8.93;;;3.00;;
15307;SDS011;7755;52.208;6.964;2022-12-07T13:02:47;7.53;;;2.83;;
15307;SDS011;7755;52.208;6.964;2022-12-07T13:06:51;6.50;;;2.83;;
15307;SDS011;7755;52.208;6.964;2022-12-07T13:10:54;8.93;;;2.50;;
15307;SDS011;7755;52.208;6.964;2022-12-07T13:15:33;2.83;;;2.17;;
15307;SDS011;7755;52.208;6.964;2022-12-07T13:24:06;4.40;;;2.57;;
15307;SDS011;7755;52.208;6.964;2022-12-07T13:28:15;5.73;;;2.30;;
15307;SDS011;7755;52.208;6.964;2022-12-07T13:32:22;4.60;;;2.97;;
15307;SDS011;7755;52.208;6.964;2022-12-07T13:36:28;3.43;;;2.30;;
15307;SDS011;7755;52.208;6.964;2022-12-07T13:40:36;5.93;;;2.30;;
15307;SDS011;7755;52.208;6.964;2022-12-07T13:44:40;3.93;;;2.50;;
15307;SDS011;7755;52.208;6.964;2022-12-07T13:48:45;3.67;;;2.17;;
15307;SDS011;7755;52.208;6.964;2022-12-07T13:52:50;3.10;;;2.80;;
15307;SDS011;7755;52.208;6.964;2022-12-07T13:56:52;6.43;;;2.97;;
15307;SDS011;7755;52.208;6.964;2022-12-07T14:00:55;14.60;;;6.13;;
15307;SDS011;7755;52.208;6.964;2022-12-07T14:05:07;7.80;;;4.40;;
15307;SDS011;7755;52.208;6.964;2022-12-07T14:09:17;5.97;;;3.23;;
15307;SDS011;7755;52.208;6.964;2022-12-07T14:13:24;6.20;;;4.90;;
15307;SDS011;7755;52.208;6.964;2022-12-07T14:17:32;6.07;;;3.93;;
15307;SDS011;7755;52.208;6.964;2022-12-07T14:21:36;7.47;;;4.17;;
15307;SDS011;7755;52.208;6.964;2022-12-07T14:25:46;6.00;;;4.30;;
15307;SDS011;7755;52.208;6.964;2022-12-07T14:29:52;4.43;;;3.70;;
15307;SDS011;7755;52.208;6.964;2022-12-07T14:33:58;5.57;;;3.63;;
15307;SDS011;7755;52.208;6.964;2022-12-07T14:38:02;11.53;;;8.23;;
15307;SDS011;7755;52.208;6.964;2022-12-07T14:42:07;8.40;;;5.60;;
15307;SDS011;7755;52.208;6.964;2022-12-07T14:46:10;6.03;;;3.50;;
15307;SDS011;7755;52.208;6.964;2022-12-07T14:50:13;5.60;;;3.37;;
15307;SDS011;7755;52.208;6.964;2022-12-07T14:54:19;6.10;;;3.60;;
15307;SDS011;7755;52.208;6.964;2022-12-07T14:58:22;6.20;;;4.53;;
15307;SDS011;7755;52.208;6.964;2022-12-07T15:02:25;7.93;;;4.40;;
15307;SDS011;7755;52.208;6.964;2022-12-07T15:06:28;6.27;;;3.70;;
15307;SDS011;7755;52.208;6.964;2022-12-07T15:10:33;5.30;;;3.10;;
15307;SDS011;7755;52.208;6.964;2022-12-07T15:14:39;7.43;;;5.17;;
15307;SDS011;7755;52.208;6.964;2022-12-07T15:18:42;7.87;;;6.00;;
15307;SDS011;7755;52.208;6.964;2022-12-07T15:23:05;5.90;;;3.73;;
15307;SDS011;7755;52.208;6.964;2022-12-07T15:27:09;5.33;;;3.63;;
15307;SDS011;7755;52.208;6.964;2022-12-07T15:31:12;6.07;;;2.90;;
15307;SDS011;7755;52.208;6.964;2022-12-07T15:35:37;3.90;;;3.30;;
15307;SDS011;7755;52.208;6.964;2022-12-07T15:39:41;6.43;;;4.10;;
15307;SDS011;7755;52.208;6.964;2022-12-07T15:43:45;10.10;;;4.07;;
15307;SDS011;7755;52.208;6.964;2022-12-07T15:48:06;14.57;;;8.33;;
15307;SDS011;7755;52.208;6.964;2022-12-07T15:52:28;8.40;;;5.43;;
15307;SDS011;7755;52.208;6.964;2022-12-07T15:56:31;9.13;;;7.97;;
15307;SDS011;7755;52.208;6.964;2022-12-07T16:00:35;8.27;;;5.40;;
15307;SDS011;7755;52.208;6.964;2022-12-07T16:04:38;5.53;;;2.90;;
15307;SDS011;7755;52.208;6.964;2022-12-07T16:08:41;5.60;;;2.87;;
15307;SDS011;7755;52.208;6.964;2022-12-07T16:12:44;3.60;;;2.93;;
15307;SDS011;7755;52.208;6.964;2022-12-07T16:16:48;4.77;;;2.73;;
15307;SDS011;7755;52.208;6.964;2022-12-07T16:20:51;6.67;;;3.33;;
15307;SDS011;7755;52.208;6.964;2022-12-07T16:24:54;4.93;;;3.07;;
15307;SDS011;7755;52.208;6.964;2022-12-07T16:28:57;8.17;;;3.70;;
15307;SDS011;7755;52.208;6.964;2022-12-07T16:33:01;8.63;;;3.20;;
15307;SDS011;7755;52.208;6.964;2022-12-07T16:37:04;3.83;;;3.43;;
15307;SDS011;7755;52.208;6.964;2022-12-07T16:41:07;7.27;;;3.43;;
15307;SDS011;7755;52.208;6.964;2022-12-07T16:45:10;9.10;;;4.07;;
15307;SDS011;7755;52.208;6.964;2022-12-07T16:49:22;5.60;;;3.93;;
15307;SDS011;7755;52.208;6.964;2022-12-07T16:53:25;9.20;;;6.40;;
15307;SDS011;7755;52.208;6.964;2022-12-07T16:57:28;9.47;;;6.70;;
15307;SDS011;7755;52.208;6.964;2022-12-07T17:01:32;9.53;;;4.60;;
15307;SDS011;7755;52.208;6.964;2022-12-07T17:05:38;9.13;;;6.50;;
15307;SDS011;7755;52.208;6.964;2022-12-07T17:09:41;13.40;;;8.07;;
15307;SDS011;7755;52.208;6.964;2022-12-07T17:13:44;11.33;;;7.47;;
15307;SDS011;7755;52.208;6.964;2022-12-07T17:18:05;8.50;;;6.87;;
15307;SDS011;7755;52.208;6.964;2022-12-07T17:22:09;22.27;;;13.33;;
15307;SDS011;7755;52.208;6.964;2022-12-07T17:26:14;9.70;;;7.00;;
15307;SDS011;7755;52.208;6.964;2022-12-07T17:30:18;17.10;;;10.57;;
15307;SDS011;7755;52.208;6.964;2022-12-07T17:34:21;11.43;;;7.23;;
15307;SDS011;7755;52.208;6.964;2022-12-07T17:38:27;6.90;;;4.33;;
15307;SDS011;7755;52.208;6.964;2022-12-07T17:42:30;11.93;;;8.60;;
15307;SDS011;7755;52.208;6.964;2022-12-07T17:46:40;7.43;;;5.50;;
15307;SDS011;7755;52.208;6.964;2022-12-07T17:50:43;7.77;;;6.10;;
15307;SDS011;7755;52.208;6.964;2022-12-07T17:55:05;6.97;;;5.97;;
15307;SDS011;7755;52.208;6.964;2022-12-07T17:59:09;12.57;;;7.70;;
15307;SDS011;7755;52.208;6.964;2022-12-07T18:03:12;9.90;;;7.67;;
15307;SDS011;7755;52.208;6.964;2022-12-07T18:07:15;6.37;;;5.00;;
15307;SDS011;7755;52.208;6.964;2022-12-07T18:11:19;8.37;;;5.30;;
15307;SDS011;7755;52.208;6.964;2022-12-07T18:15:24;4.60;;;3.90;;
15307;SDS011;7755;52.208;6.964;2022-12-07T18:19:26;8.50;;;5.90;;
15307;SDS011;7755;52.208;6.964;2022-12-07T18:23:29;5.63;;;5.03;;
15307;SDS011;7755;52.208;6.964;2022-12-07T18:27:35;21.40;;;12.27;;
15307;SDS011;7755;52.208;6.964;2022-12-07T18:31:39;41.37;;;25.13;;
15307;SDS011;7755;52.208;6.964;2022-12-07T18:35:41;12.90;;;8.53;;
15307;SDS011;7755;52.208;6.964;2022-12-07T18:39:44;7.77;;;6.27;;
15307;SDS011;7755;52.208;6.964;2022-12-07T18:43:48;10.67;;;9.27;;
15307;SDS011;7755;52.208;6.964;2022-12-07T18:47:51;8.20;;;7.07;;
15307;SDS011;7755;52.208;6.964;2022-12-07T18:51:54;6.63;;;5.57;;
15307;SDS011;7755;52.208;6.964;2022-12-07T18:56:00;6.50;;;5.83;;
15307;SDS011;7755;52.208;6.964;2022-12-07T19:00:06;6.00;;;4.67;;
15307;SDS011;7755;52.208;6.964;2022-12-07T19:04:09;5.67;;;4.70;;
15307;SDS011;7755;52.208;6.964;2022-12-07T19:08:12;16.53;;;10.13;;
15307;SDS011;7755;52.208;6.964;2022-12-07T19:12:16;11.93;;;7.77;;
15307;SDS011;7755;52.208;6.964;2022-12-07T19:16:20;21.10;;;15.63;;
15307;SDS011;7755;52.208;6.964;2022-12-07T19:20:23;8.70;;;6.57;;
15307;SDS011;7755;52.208;6.964;2022-12-07T19:24:26;7.20;;;6.30;;
15307;SDS011;7755;52.208;6.964;2022-12-07T19:28:28;8.70;;;7.13;;
15307;SDS011;7755;52.208;6.964;2022-12-07T19:32:32;11.40;;;10.33;;
15307;SDS011;7755;52.208;6.964;2022-12-07T19:36:35;9.30;;;8.03;;
15307;SDS011;7755;52.208;6.964;2022-12-07T19:40:38;10.80;;;9.70;;
15307;SDS011;7755;52.208;6.964;2022-12-07T19:44:41;7.83;;;6.80;;
15307;SDS011;7755;52.208;6.964;2022-12-07T19:48:45;10.13;;;9.13;;
15307;SDS011;7755;52.208;6.964;2022-12-07T19:52:47;10.63;;;9.73;;
15307;SDS011;7755;52.208;6.964;2022-12-07T19:56:50;11.23;;;9.03;;
15307;SDS011;7755;52.208;6.964;2022-12-07T20:00:54;8.70;;;7.43;;
15307;SDS011;7755;52.208;6.964;2022-12-07T20:04:58;14.83;;;11.67;;
15307;SDS011;7755;52.208;6.964;2022-12-07T20:09:06;23.30;;;14.87;;
15307;SDS011;7755;52.208;6.964;2022-12-07T20:13:09;23.87;;;19.70;;
15307;SDS011;7755;52.208;6.964;2022-12-07T20:17:32;16.23;;;14.63;;
15307;SDS011;7755;52.208;6.964;2022-12-07T20:21:36;12.90;;;11.67;;
15307;SDS011;7755;52.208;6.964;2022-12-07T20:25:39;13.43;;;12.03;;
15307;SDS011;7755;52.208;6.964;2022-12-07T20:29:42;16.17;;;14.47;;
15307;SDS011;7755;52.208;6.964;2022-12-07T20:33:45;15.43;;;13.90;;
15307;SDS011;7755;52.208;6.964;2022-12-07T20:37:51;15.07;;;11.83;;
15307;SDS011;7755;52.208;6.964;2022-12-07T20:41:53;15.27;;;13.77;;
15307;SDS011;7755;52.208;6.964;2022-12-07T20:46:10;13.27;;;11.97;;
15307;SDS011;7755;52.208;6.964;2022-12-07T20:50:13;12.03;;;10.33;;
15307;SDS011;7755;52.208;6.964;2022-12-07T20:54:17;19.30;;;14.80;;
15307;SDS011;7755;52.208;6.964;2022-12-07T20:58:20;31.60;;;23.13;;
15307;SDS011;7755;52.208;6.964;2022-12-07T21:02:28;24.13;;;20.13;;
15307;SDS011;7755;52.208;6.964;2022-12-07T21:06:31;18.43;;;16.53;;
15307;SDS011;7755;52.208;6.964;2022-12-07T21:10:35;13.30;;;12.00;;
15307;SDS011;7755;52.208;6.964;2022-12-07T21:14:38;24.80;;;21.13;;
15307;SDS011;7755;52.208;6.964;2022-12-07T21:18:42;21.30;;;19.10;;
15307;SDS011;7755;52.208;6.964;2022-12-07T21:22:48;20.87;;;18.07;;
15307;SDS011;7755;52.208;6.964;2022-12-07T21:26:52;19.67;;;16.30;;
15307;SDS011;7755;52.208;6.964;2022-12-07T21:30:55;25.00;;;17.70;;
15307;SDS011;7755;52.208;6.964;2022-12-07T21:35:13;31.33;;;20.33;;
15307;SDS011;7755;52.208;6.964;2022-12-07T21:39:16;25.90;;;19.67;;
15307;SDS011;7755;52.208;6.964;2022-12-07T21:43:20;22.87;;;18.30;;
15307;SDS011;7755;52.208;6.964;2022-12-07T21:47:23;20.97;;;16.40;;
15307;SDS011;7755;52.208;6.964;2022-12-07T21:51:27;19.60;;;16.73;;
15307;SDS011;7755;52.208;6.964;2022-12-07T21:55:30;17.47;;;14.30;;
15307;SDS011;7755;52.208;6.964;2022-12-07T21:59:35;14.20;;;12.53;;
15307;SDS011;7755;52.208;6.964;2022-12-07T22:03:37;13.00;;;11.70;;
15307;SDS011;7755;52.208;6.964;2022-12-07T22:07:40;14.27;;;12.87;;
15307;SDS011;7755;52.208;6.964;2022-12-07T22:11:43;10.60;;;9.60;;
15307;SDS011;7755;52.208;6.964;2022-12-07T22:15:47;12.27;;;10.30;;
15307;SDS011;7755;52.208;6.964;2022-12-07T22:19:50;8.37;;;7.67;;
15307;SDS011;7755;52.208;6.964;2022-12-07T22:23:53;11.53;;;9.10;;
15307;SDS011;7755;52.208;6.964;2022-12-07T22:27:55;10.17;;;8.10;;
15307;SDS011;7755;52.208;6.964;2022-12-07T22:31:59;13.67;;;8.93;;
15307;SDS011;7755;52.208;6.964;2022-12-07T22:36:22;8.37;;;7.47;;
15307;SDS011;7755;52.208;6.964;2022-12-07T22:40:25;10.60;;;8.57;;
15307;SDS011;7755;52.208;6.964;2022-12-07T22:44:28;8.13;;;7.43;;
15307;SDS011;7755;52.208;6.964;2022-12-07T22:48:32;8.50;;;7.53;;
15307;SDS011;7755;52.208;6.964;2022-12-07T22:52:35;12.40;;;8.67;;
15307;SDS011;7755;52.208;6.964;2022-12-07T22:56:38;8.03;;;7.27;;
15307;SDS011;7755;52.208;6.964;2022-12-07T23:00:40;8.93;;;8.00;;
15307;SDS011;7755;52.208;6.964;2022-12-07T23:04:45;8.93;;;8.07;;
15307;SDS011;7755;52.208;6.964;2022-12-07T23:08:48;9.70;;;8.70;;
15307;SDS011;7755;52.208;6.964;2022-12-07T23:12:51;10.43;;;9.00;;
15307;SDS011;7755;52.208;6.964;2022-12-07T23:17:27;13.60;;;9.33;;
15307;SDS011;7755;52.208;6.964;2022-12-07T23:21:32;12.00;;;10.57;;
15307;SDS011;7755;52.208;6.964;2022-12-07T23:25:35;11.87;;;10.33;;
15307;SDS011;7755;52.208;6.964;2022-12-07T23:29:38;17.23;;;14.20;;
15307;SDS011;7755;52.208;6.964;2022-12-07T23:33:41;17.57;;;14.37;;
15307;SDS011;7755;52.208;6.964;2022-12-07T23:37:46;16.33;;;14.23;;
15307;SDS011;7755;52.208;6.964;2022-12-07T23:41:49;17.07;;;15.27;;
15307;SDS011;7755;52.208;6.964;2022-12-07T23:45:52;18.13;;;15.87;;
15307;SDS011;7755;52.208;6.964;2022-12-07T23:49:54;21.93;;;17.60;;
15307;SDS011;7755;52.208;6.964;2022-12-07T23:53:58;22.90;;;19.10;;
15307;SDS011;7755;52.208;6.964;2022-12-07T23:58:02;26.70;;;21.77;;
